Time;durP1;ratioP1;P1;durP2;ratioP2;P2;SDS_P1;SDS_P2;PMS_P1;PMS_P2;Temp;Humidity;BMP_temperature;BMP_pressure;BME280_temperature;BME280_humidity;BME280_pressure;Samples;Min_cycle;Max_cycle;Signal;HPM_P1;HPM_P2
2023/06/14 00:00:40;;;;;;;9.15;5.35;;;;;;;21.62;81.75;99709.22;4988371;28;20506;-20
2023/06/14 00:03:11;;;;;;;10.77;5.30;;;;;;;21.68;81.36;99712.63;4988571;28;20513;-18
2023/06/14 00:05:42;;;;;;;9.68;6.00;;;;;;;21.97;80.97;99704.16;4988608;28;20426;-18
2023/06/14 00:08:11;;;;;;;10.93;6.43;;;;;;;22.04;81.07;99715.41;4988731;28;20041;-18
2023/06/14 00:10:37;;;;;;;10.13;6.18;;;;;;;21.91;81.93;99705.38;4988606;28;20022;-18
2023/06/14 00:13:07;;;;;;;8.40;6.15;;;;;;;21.91;81.26;99704.59;4988174;28;20060;-18
2023/06/14 00:15:33;;;;;;;10.90;6.25;;;;;;;21.65;83.16;99708.59;4988363;28;20018;-18
2023/06/14 00:18:00;;;;;;;8.57;6.03;;;;;;;21.52;83.76;99705.91;4988280;28;20453;-18
2023/06/14 00:20:27;;;;;;;8.38;5.18;;;;;;;21.43;83.92;99706.59;4988103;28;20034;-18
2023/06/14 00:22:53;;;;;;;7.07;5.00;;;;;;;21.49;82.84;99704.56;4988087;28;20044;-18
2023/06/14 00:25:19;;;;;;;8.57;5.53;;;;;;;21.28;84.26;99699.50;4988433;28;20031;-18
2023/06/14 00:27:45;;;;;;;7.68;5.20;;;;;;;21.46;83.18;99705.97;4988211;28;20396;-17
2023/06/14 00:30:11;;;;;;;8.25;4.82;;;;;;;21.44;82.73;99691.13;4987779;28;20053;-23
2023/06/14 00:32:36;;;;;;;8.15;5.40;;;;;;;21.37;83.66;99693.38;4987918;28;20038;-18
2023/06/14 00:35:02;;;;;;;7.03;5.00;;;;;;;21.25;83.28;99700.09;4988074;28;20112;-18
2023/06/14 00:37:27;;;;;;;7.80;4.90;;;;;;;21.22;81.83;99695.25;4987864;28;20061;-17
2023/06/14 00:39:52;;;;;;;8.32;5.00;;;;;;;21.14;82.92;99697.88;4987653;28;20022;-18
2023/06/14 00:42:28;;;;;;;8.13;4.97;;;;;;;21.41;82.07;99707.94;4987553;28;20042;-18
2023/06/14 00:44:54;;;;;;;7.75;4.53;;;;;;;21.21;82.07;99688.25;4987625;28;20034;-19
2023/06/14 00:47:20;;;;;;;9.18;4.80;;;;;;;21.09;82.84;99696.06;4987858;28;20134;-18
2023/06/14 00:49:47;;;;;;;9.45;5.13;;;;;;;21.16;81.96;99693.75;4987699;28;20035;-18
2023/06/14 00:52:14;;;;;;;10.10;5.20;;;;;;;20.84;83.44;99689.97;4987765;28;20125;-18
2023/06/14 00:54:40;;;;;;;7.50;5.18;;;;;;;20.77;84.14;99689.53;4987525;28;20118;-19
2023/06/14 00:57:07;;;;;;;9.27;5.50;;;;;;;20.83;83.40;99695.69;4987852;28;20113;-17
2023/06/14 00:59:33;;;;;;;8.15;5.10;;;;;;;20.87;83.49;99688.56;4987341;28;20065;-20
2023/06/14 01:01:58;;;;;;;8.15;5.15;;;;;;;20.93;83.11;99692.00;4987220;28;20413;-18
2023/06/14 01:04:24;;;;;;;7.45;4.82;;;;;;;21.07;81.65;99687.41;4987382;28;20041;-18
2023/06/14 01:06:55;;;;;;;9.45;5.40;;;;;;;20.91;82.46;99670.59;4987312;28;20022;-18
2023/06/14 01:09:46;;;;;;;7.03;5.07;;;;;;;20.83;83.69;99682.13;4987543;28;20018;-21
2023/06/14 01:12:21;;;;;;;7.32;4.90;;;;;;;20.98;82.35;99679.13;4987124;28;20035;-18
2023/06/14 01:14:49;;;;;;;6.63;5.10;;;;;;;20.90;82.62;99677.13;4986988;28;20058;-18
2023/06/14 01:17:18;;;;;;;17.80;5.90;;;;;;;20.78;83.63;99674.88;4987143;28;20022;-18
2023/06/14 01:19:45;;;;;;;7.97;4.95;;;;;;;20.79;83.71;99686.53;4986930;28;20109;-18
2023/06/14 01:22:11;;;;;;;7.40;4.82;;;;;;;20.80;83.16;99683.53;4986899;28;20042;-23
2023/06/14 01:24:39;;;;;;;6.97;5.30;;;;;;;20.80;84.20;99677.28;4987343;28;20491;-18
2023/06/14 01:27:06;;;;;;;6.93;4.80;;;;;;;20.91;83.24;99672.53;4986853;28;20502;-17
2023/06/14 01:29:32;;;;;;;;;;;;;;;20.82;83.43;99680.50;4987440;28;20092;-18
2023/06/14 01:31:59;;;;;;;8.48;4.60;;;;;;;20.65;84.76;99684.56;4986906;28;19921;-18
2023/06/14 01:34:25;;;;;;;6.93;4.60;;;;;;;20.43;86.25;99668.91;4986845;28;20469;-18
2023/06/14 01:36:54;;;;;;;8.63;5.63;;;;;;;20.56;84.94;99661.94;4986742;28;20038;-17
2023/06/14 01:39:22;;;;;;;7.93;5.18;;;;;;;20.68;84.19;99675.06;4986854;28;20026;-18
2023/06/14 01:41:50;;;;;;;7.20;4.72;;;;;;;20.50;84.97;99665.81;4986352;28;20105;-18
2023/06/14 01:44:18;;;;;;;7.90;5.85;;;;;;;20.56;84.97;99658.44;4986352;28;20042;-19
2023/06/14 01:46:45;;;;;;;7.00;4.72;;;;;;;20.48;86.37;99666.09;4986803;28;20030;-18
2023/06/14 01:49:11;;;;;;;8.20;5.40;;;;;;;20.78;84.79;99658.63;4986566;28;20023;-19
2023/06/14 01:51:36;;;;;;;7.65;5.22;;;;;;;20.59;85.18;99655.13;4986452;28;20049;-18
2023/06/14 01:54:01;;;;;;;7.78;5.18;;;;;;;20.48;85.98;99655.28;4986454;28;20042;-18
2023/06/14 01:56:27;;;;;;;7.70;5.35;;;;;;;20.83;84.95;99661.25;4986496;28;20030;-17
2023/06/14 01:58:53;;;;;;;8.55;5.30;;;;;;;20.85;83.97;99667.16;4986465;28;20057;-18
2023/06/14 02:01:21;;;;;;;8.00;5.53;;;;;;;20.78;84.87;99669.47;4986386;28;20153;-21
2023/06/14 02:03:48;;;;;;;7.32;5.13;;;;;;;20.64;85.16;99671.34;4986154;28;20035;-18
2023/06/14 02:06:13;;;;;;;8.45;5.40;;;;;;;20.83;84.34;99671.28;4986038;28;20046;-22
2023/06/14 02:08:39;;;;;;;8.15;5.35;;;;;;;20.44;86.51;99670.50;4986381;28;20030;-18
2023/06/14 02:11:05;;;;;;;8.77;5.63;;;;;;;20.30;87.71;99653.38;4986356;28;20168;-20
2023/06/14 02:13:30;;;;;;;7.07;4.88;;;;;;;20.16;89.16;99676.88;4986396;28;20528;-18
2023/06/14 02:15:57;;;;;;;7.75;5.10;;;;;;;20.09;90.15;99673.75;4986006;28;20026;-18
2023/06/14 02:18:23;;;;;;;6.70;5.40;;;;;;;20.27;89.00;99670.22;4968567;28;20038;-19
2023/06/14 02:20:48;;;;;;;8.77;5.20;;;;;;;20.59;86.26;99671.41;4986167;28;20033;-17
2023/06/14 02:23:14;;;;;;;7.78;5.70;;;;;;;20.20;88.90;99669.78;4986099;28;20441;-21
2023/06/14 02:25:40;;;;;;;7.38;5.38;;;;;;;20.16;89.27;99674.16;4986099;28;20089;-18
2023/06/14 02:28:06;;;;;;;9.90;5.40;;;;;;;19.98;90.97;99667.63;4985921;28;20057;-18
2023/06/14 02:30:31;;;;;;;8.15;5.32;;;;;;;20.29;89.14;99670.75;4985820;28;20117;-18
2023/06/14 02:32:57;;;;;;;10.38;5.57;;;;;;;20.10;90.26;99680.75;4986010;28;20033;-18
2023/06/14 02:35:26;;;;;;;10.82;6.35;;;;;;;20.06;90.50;99681.34;4986112;28;20101;-17
2023/06/14 02:37:55;;;;;;;8.63;5.47;;;;;;;19.85;91.64;99669.97;4985955;28;20129;-17
2023/06/14 02:40:20;;;;;;;9.65;6.30;;;;;;;19.84;91.73;99689.22;4985890;28;20125;-17
2023/06/14 02:42:46;;;;;;;9.77;5.80;;;;;;;19.81;92.46;99684.38;4985534;28;20160;-18
2023/06/14 02:45:11;;;;;;;8.65;6.22;;;;;;;19.74;92.68;99683.94;4986029;28;20490;-18
2023/06/14 02:47:37;;;;;;;8.43;5.55;;;;;;;19.72;92.60;99686.13;4985841;28;20418;-18
2023/06/14 02:50:02;;;;;;;8.77;5.53;;;;;;;19.61;93.85;99691.59;4985803;28;20104;-18
2023/06/14 02:52:28;;;;;;;10.57;5.32;;;;;;;19.53;95.30;99686.81;4985692;28;20026;-17
2023/06/14 02:54:54;;;;;;;8.32;6.30;;;;;;;19.64;94.71;99693.72;4985850;28;20073;-19
2023/06/14 02:57:23;;;;;;;8.20;5.95;;;;;;;19.65;94.96;99689.13;4986090;28;20465;-18
2023/06/14 02:59:49;;;;;;;8.27;6.25;;;;;;;19.70;94.50;99690.97;4985812;28;20517;-18
2023/06/14 03:02:14;;;;;;;9.45;6.18;;;;;;;19.34;97.15;99691.34;4985782;28;20062;-18
2023/06/14 03:04:40;;;;;;;8.98;6.43;;;;;;;19.61;95.81;99693.50;4985452;28;20023;-17
2023/06/14 03:07:08;;;;;;;7.00;5.72;;;;;;;19.47;96.37;99701.47;4985772;28;20030;-20
2023/06/14 03:09:36;;;;;;;7.63;5.75;;;;;;;19.52;96.85;99704.16;4985489;28;20041;-18
2023/06/14 03:12:02;;;;;;;;;;;;;;;19.34;96.75;99694.06;4986113;28;20066;-18
2023/06/14 03:14:29;;;;;;;8.45;6.25;;;;;;;19.52;97.12;99714.97;4985455;28;19921;-17
2023/06/14 03:16:56;;;;;;;9.73;6.18;;;;;;;19.66;95.65;99710.47;4985219;28;20462;-18
2023/06/14 03:19:22;;;;;;;9.98;7.18;;;;;;;19.54;96.61;99710.06;4985570;28;20034;-18
2023/06/14 03:21:48;;;;;;;8.65;6.53;;;;;;;19.76;95.51;99717.72;4985536;28;20038;-18
2023/06/14 03:24:16;;;;;;;10.18;6.22;;;;;;;19.72;95.24;99707.75;4985698;28;20042;-18
2023/06/14 03:26:41;;;;;;;9.30;5.93;;;;;;;19.75;95.64;99707.97;4985550;28;20628;-18
2023/06/14 03:29:07;;;;;;;12.07;6.68;;;;;;;19.73;95.06;99709.34;4985477;28;20117;-18
2023/06/14 03:31:34;;;;;;;7.78;6.18;;;;;;;19.89;94.28;99708.06;4985291;28;20161;-18
2023/06/14 03:34:00;;;;;;;11.95;6.72;;;;;;;19.96;92.34;99708.53;4985325;28;20042;-18
2023/06/14 03:36:26;;;;;;;10.35;6.65;;;;;;;19.90;93.48;99720.53;4986356;28;20034;-19
2023/06/14 03:38:51;;;;;;;10.70;7.13;;;;;;;19.77;94.33;99722.00;4988901;28;20054;-18
2023/06/14 03:41:17;;;;;;;9.73;6.90;;;;;;;19.77;94.16;99721.22;4988815;28;20085;-21
2023/06/14 03:43:42;;;;;;;10.57;7.75;;;;;;;20.02;93.05;99723.63;4989048;28;20105;-18
2023/06/14 03:46:07;;;;;;;9.70;7.15;;;;;;;19.77;93.64;99713.09;4988945;28;20553;-18
2023/06/14 03:48:33;;;;;;;12.85;7.45;;;;;;;19.84;93.41;99729.81;4988725;28;20033;-18
2023/06/14 03:50:58;;;;;;;10.60;7.25;;;;;;;19.91;92.50;99729.44;4988828;28;20052;-18
2023/06/14 03:53:24;;;;;;;9.27;7.20;;;;;;;19.84;92.98;99738.72;4988485;28;20034;-18
2023/06/14 03:55:52;;;;;;;8.98;6.25;;;;;;;19.99;91.76;99743.13;4988723;28;20060;-17
2023/06/14 03:58:17;;;;;;;;;;;;;;;19.96;92.43;99746.44;4988884;28;20634;-23
2023/06/14 04:00:43;;;;;;;9.80;6.97;;;;;;;20.02;92.40;99744.44;4988901;28;20431;-18
2023/06/14 04:03:08;;;;;;;10.07;7.10;;;;;;;19.97;94.26;99742.63;4988579;28;20030;-18
2023/06/14 04:05:34;;;;;;;8.73;6.85;;;;;;;19.93;94.83;99746.19;4988344;28;20042;-18
2023/06/14 04:08:00;;;;;;;16.52;7.85;;;;;;;19.70;96.16;99745.88;4988451;28;20030;-18
2023/06/14 04:10:26;;;;;;;10.77;7.20;;;;;;;19.90;95.89;99752.19;4988061;28;20030;-18
2023/06/14 04:12:52;;;;;;;9.88;7.05;;;;;;;19.84;95.83;99737.91;4988395;28;20030;-18
2023/06/14 04:15:18;;;;;;;10.07;7.32;;;;;;;19.92;95.34;99741.88;4987858;28;20065;-25
2023/06/14 04:17:43;;;;;;;14.63;7.47;;;;;;;20.19;93.23;99754.81;4988631;28;20473;-17
2023/06/14 04:20:10;;;;;;;10.70;7.40;;;;;;;20.37;91.83;99751.31;4988234;28;20129;-18
2023/06/14 04:22:36;;;;;;;13.85;7.85;;;;;;;20.29;92.71;99754.69;4988439;28;20038;-18
2023/06/14 04:25:01;;;;;;;11.50;7.63;;;;;;;20.05;93.46;99758.22;4987975;28;20093;-16
2023/06/14 04:27:28;;;;;;;11.25;7.30;;;;;;;20.15;94.37;99764.63;4988011;28;20766;-18
2023/06/14 04:29:56;;;;;;;11.57;7.50;;;;;;;20.13;93.05;99761.41;4988075;28;20080;-17
2023/06/14 04:32:33;;;;;;;11.93;8.27;;;;;;;20.54;91.46;99766.28;4987959;28;20030;-18
2023/06/14 04:35:02;;;;;;;10.57;7.95;;;;;;;20.29;93.28;99765.53;4987881;28;20062;-20
2023/06/14 04:37:28;;;;;;;12.60;9.07;;;;;;;20.40;92.31;99764.28;4988248;28;20101;-18
2023/06/14 04:39:55;;;;;;;9.77;7.68;;;;;;;20.30;93.19;99766.31;4987871;28;20030;-18
2023/06/14 04:42:24;;;;;;;10.23;7.22;;;;;;;20.29;91.98;99765.53;4987543;28;20050;-18
2023/06/14 04:44:51;;;;;;;12.18;7.57;;;;;;;20.38;89.75;99774.59;4987816;28;20543;-18
2023/06/14 04:47:17;;;;;;;8.43;6.82;;;;;;;20.31;89.67;99779.56;4987140;28;20707;-18
2023/06/14 04:49:44;;;;;;;11.30;6.57;;;;;;;20.30;89.13;99783.38;4987325;28;20026;-20
2023/06/14 04:52:10;;;;;;;9.40;6.70;;;;;;;20.31;88.54;99774.16;4987395;28;20044;-18
2023/06/14 04:54:41;;;;;;;12.15;7.07;;;;;;;20.43;87.92;99782.66;4987642;28;20026;-18
2023/06/14 04:57:07;;;;;;;9.98;7.07;;;;;;;20.64;87.27;99783.22;4987522;28;20502;-18
2023/06/14 04:59:35;;;;;;;12.32;6.90;;;;;;;20.85;86.68;99786.41;4987415;28;20037;-18
2023/06/14 05:02:01;;;;;;;17.27;9.88;;;;;;;20.75;86.93;99781.16;4987370;28;20034;-21
2023/06/14 05:04:27;;;;;;;15.18;10.18;;;;;;;20.84;86.57;99784.81;4987281;28;20069;-19
2023/06/14 05:06:54;;;;;;;13.13;8.77;;;;;;;21.03;83.96;99792.13;4987467;28;20037;-18
2023/06/14 05:09:20;;;;;;;13.07;8.13;;;;;;;21.13;83.64;99794.69;4987058;28;20026;-23
2023/06/14 05:11:47;;;;;;;10.48;7.35;;;;;;;21.36;81.65;99803.78;4987440;28;20034;-18
2023/06/14 05:14:13;;;;;;;12.40;8.52;;;;;;;21.92;81.41;99796.56;4987210;28;20076;-17
2023/06/14 05:16:39;;;;;;;14.10;7.13;;;;;;;21.68;79.18;99804.91;4986933;28;20030;-18
2023/06/14 05:19:05;;;;;;;9.57;6.20;;;;;;;21.82;78.93;99805.72;4987049;28;20425;-18
2023/06/14 05:21:33;;;;;;;14.15;7.45;;;;;;;21.76;78.42;99806.94;4987062;28;20494;-17
2023/06/14 05:23:59;;;;;;;9.45;6.13;;;;;;;21.82;74.82;99810.31;4987005;28;20109;-18
2023/06/14 05:26:28;;;;;;;8.45;5.53;;;;;;;21.98;73.95;99811.66;4986904;28;20168;-19
2023/06/14 05:28:56;;;;;;;9.18;5.93;;;;;;;22.49;75.02;99815.28;4986762;28;20026;-20
2023/06/14 05:31:25;;;;;;;9.25;6.30;;;;;;;22.65;73.06;99818.47;4986913;28;20034;-18
2023/06/14 05:33:51;;;;;;;9.90;6.35;;;;;;;22.78;72.11;99825.81;4986736;28;20045;-20
2023/06/14 05:36:16;;;;;;;9.27;6.15;;;;;;;22.48;71.87;99832.69;4986886;28;20457;-18
2023/06/14 05:38:42;;;;;;;7.93;6.03;;;;;;;22.56;71.52;99823.03;4987013;28;20036;-19
2023/06/14 05:41:07;;;;;;;13.38;6.22;;;;;;;23.00;69.96;99826.94;4986518;28;20033;-18
2023/06/14 05:43:33;;;;;;;9.75;6.30;;;;;;;22.92;71.56;99827.66;4986715;28;20066;-17
2023/06/14 05:45:58;;;;;;;8.52;5.68;;;;;;;23.06;71.44;99823.00;4986423;28;20413;-18
2023/06/14 05:48:24;;;;;;;8.68;6.15;;;;;;;23.19;68.15;99830.31;4986591;28;20099;-20
2023/06/14 05:50:49;;;;;;;7.28;5.80;;;;;;;23.54;66.91;99836.00;4986671;28;20486;-18
2023/06/14 05:53:15;;;;;;;8.95;5.57;;;;;;;23.59;68.02;99835.84;4986686;28;20802;-18
2023/06/14 05:55:40;;;;;;;7.30;5.72;;;;;;;23.16;69.18;99833.66;4986544;28;20092;-17
2023/06/14 05:58:05;;;;;;;8.10;6.22;;;;;;;23.21;69.62;99836.25;4986550;28;20030;-18
2023/06/14 06:00:31;;;;;;;9.95;6.03;;;;;;;23.49;67.30;99847.00;4985979;28;20521;-18
2023/06/14 06:03:00;;;;;;;9.43;7.00;;;;;;;23.52;67.53;99837.41;4986211;28;20038;-20
2023/06/14 06:05:26;;;;;;;8.52;6.35;;;;;;;23.90;68.61;99843.25;4986236;28;20113;-18
2023/06/14 06:07:51;;;;;;;8.27;5.85;;;;;;;24.11;67.27;99827.16;4986184;28;20410;-20
2023/06/14 06:10:17;;;;;;;9.48;6.20;;;;;;;24.14;65.69;99836.63;4986487;28;20026;-18
2023/06/14 06:12:42;;;;;;;8.52;6.03;;;;;;;24.43;63.72;99845.03;4986152;28;20030;-17
2023/06/14 06:15:11;;;;;;;11.10;5.85;;;;;;;23.96;65.66;99842.00;4986337;28;20034;-18
2023/06/14 06:17:37;;;;;;;9.15;5.97;;;;;;;24.11;65.58;99848.13;4986494;28;20033;-18
2023/06/14 06:20:05;;;;;;;11.45;8.55;;;;;;;24.13;64.95;99851.34;4986075;28;20109;-19
2023/06/14 06:22:30;;;;;;;10.82;7.88;;;;;;;24.37;63.46;99846.31;4986092;28;20146;-18
2023/06/14 06:24:56;;;;;;;8.32;5.53;;;;;;;24.20;64.00;99846.25;4986045;28;20117;-20
2023/06/14 06:27:21;;;;;;;12.45;8.73;;;;;;;24.54;62.59;99850.22;4986252;28;20026;-18
2023/06/14 06:29:48;;;;;;;11.45;8.00;;;;;;;24.18;62.38;99841.13;4986252;28;20034;-19
2023/06/14 06:32:14;;;;;;;10.88;7.20;;;;;;;24.19;63.11;99839.19;4986039;28;20430;-18
2023/06/14 06:34:40;;;;;;;37.47;24.42;;;;;;;24.44;62.95;99845.84;4985888;28;20038;-18
2023/06/14 06:37:05;;;;;;;12.10;8.20;;;;;;;24.33;63.76;99849.97;4986071;28;20091;-19
2023/06/14 06:39:31;;;;;;;7.88;6.30;;;;;;;24.14;63.10;99842.06;5000792;28;20115;-18
2023/06/14 06:41:56;;;;;;;9.80;6.18;;;;;;;24.35;64.08;99848.53;5005178;28;20026;-18
2023/06/14 06:44:22;;;;;;;12.43;6.00;;;;;;;24.36;63.95;99858.34;5004947;28;20038;-18
2023/06/14 06:46:47;;;;;;;18.42;10.93;;;;;;;24.47;63.93;99848.72;5005380;28;20065;-18
2023/06/14 06:49:13;;;;;;;11.00;6.72;;;;;;;24.53;63.18;99859.53;5005525;28;20912;-18
2023/06/14 06:51:42;;;;;;;8.48;6.20;;;;;;;24.98;62.75;99859.25;5005230;28;20107;-17
2023/06/14 06:54:08;;;;;;;9.43;6.47;;;;;;;25.04;61.68;99847.06;5005375;28;20038;-18
2023/06/14 06:56:34;;;;;;;7.90;6.22;;;;;;;24.86;60.96;99863.41;5005706;28;20470;-18
2023/06/14 06:59:00;;;;;;;11.63;6.72;;;;;;;24.58;63.27;99848.47;5005345;28;20088;-18
2023/06/14 07:01:26;;;;;;;8.02;6.30;;;;;;;24.91;62.76;99856.19;5004980;28;20030;-21
2023/06/14 07:03:51;;;;;;;9.57;6.75;;;;;;;25.10;63.00;99862.16;5005212;28;20030;-22
2023/06/14 07:06:20;;;;;;;9.57;6.07;;;;;;;24.97;61.64;99863.13;5005631;28;20021;-18
2023/06/14 07:08:48;;;;;;;8.73;6.35;;;;;;;25.09;62.19;99855.09;5005264;28;20057;-18
2023/06/14 07:11:13;;;;;;;;;;;;;;;25.14;61.22;99862.31;5006482;28;20090;-18
2023/06/14 07:13:38;;;;;;;8.20;6.07;;;;;;;25.32;61.81;99869.41;5009159;28;20303;-17
2023/06/14 07:16:04;;;;;;;8.82;6.30;;;;;;;25.40;60.38;99870.53;5008875;28;20026;-18
2023/06/14 07:18:30;;;;;;;10.80;6.57;;;;;;;25.32;60.15;99876.81;5008827;28;20017;-19
2023/06/14 07:20:57;;;;;;;10.27;6.68;;;;;;;25.39;59.74;99872.44;5008670;28;20475;-19
2023/06/14 07:23:23;;;;;;;8.05;6.40;;;;;;;25.44;60.20;99861.38;5008984;28;20493;-19
2023/06/14 07:25:49;;;;;;;9.80;7.10;;;;;;;25.59;58.92;99862.78;5009061;28;20069;-18
2023/06/14 07:28:14;;;;;;;10.93;6.80;;;;;;;25.93;58.58;99861.13;5008618;28;20032;-20
2023/06/14 07:30:39;;;;;;;7.97;6.75;;;;;;;26.27;56.98;99862.09;5008956;28;20720;-18
2023/06/14 07:33:05;;;;;;;10.00;6.13;;;;;;;26.29;56.89;99857.09;5008521;28;20044;-18
2023/06/14 07:35:31;;;;;;;10.23;5.97;;;;;;;26.21;58.65;99849.72;5008662;28;20034;-18
2023/06/14 07:37:56;;;;;;;9.85;6.28;;;;;;;26.07;56.18;99860.88;5008663;28;20113;-18
2023/06/14 07:40:22;;;;;;;11.05;6.53;;;;;;;26.24;55.36;99857.28;5008451;28;20026;-17
2023/06/14 07:42:49;;;;;;;8.70;5.80;;;;;;;26.37;56.29;99853.50;5008403;28;21052;-18
2023/06/14 07:45:15;;;;;;;8.65;5.78;;;;;;;26.28;53.69;99860.19;5008423;28;20053;-18
2023/06/14 07:47:40;;;;;;;22.33;8.07;;;;;;;26.13;53.50;99859.56;5008494;28;20447;-18
2023/06/14 07:50:06;;;;;;;8.93;6.10;;;;;;;26.22;56.11;99851.34;5008492;28;20433;-18
2023/06/14 07:52:31;;;;;;;9.18;5.68;;;;;;;26.30;54.35;99855.97;5008560;28;20052;-17
2023/06/14 07:54:57;;;;;;;7.72;5.20;;;;;;;26.20;53.30;99850.88;5008283;28;20477;-20
2023/06/14 07:57:22;;;;;;;6.93;5.50;;;;;;;26.24;54.63;99846.34;5008309;28;20448;-18
2023/06/14 07:59:47;;;;;;;9.07;5.72;;;;;;;26.17;54.66;99854.25;5008273;28;20026;-18
2023/06/14 08:02:13;;;;;;;9.32;5.50;;;;;;;26.25;54.77;99854.22;5007360;28;20045;-18
2023/06/14 08:04:38;;;;;;;8.30;4.90;;;;;;;25.84;54.04;99861.09;5008237;28;20030;-17
2023/06/14 08:07:04;;;;;;;38.85;32.60;;;;;;;25.80;53.03;99851.16;5008497;28;20034;-18
2023/06/14 08:09:30;;;;;;;6.78;4.57;;;;;;;26.14;52.41;99850.25;5008124;28;20486;-19
2023/06/14 08:11:56;;;;;;;10.95;5.80;;;;;;;26.48;55.88;99858.59;5008091;28;20497;-17
2023/06/14 08:14:22;;;;;;;6.30;4.60;;;;;;;26.72;51.42;99864.25;5008155;28;20520;-18
2023/06/14 08:16:47;;;;;;;8.55;4.32;;;;;;;26.73;51.61;99863.16;5007674;28;20500;-18
2023/06/14 08:19:13;;;;;;;8.45;4.70;;;;;;;26.24;51.16;99860.03;5007900;28;20080;-18
2023/06/14 08:21:39;;;;;;;6.07;4.40;;;;;;;26.43;53.18;99857.66;5007607;28;20033;-19
2023/06/14 08:24:05;;;;;;;6.43;5.43;;;;;;;26.64;52.43;99857.75;5007793;28;20084;-19
2023/06/14 08:26:31;;;;;;;7.25;4.75;;;;;;;26.42;51.83;99867.00;5007585;28;20083;-17
2023/06/14 08:28:57;;;;;;;9.23;4.88;;;;;;;26.54;52.75;99869.03;5007145;28;20022;-18
2023/06/14 08:31:23;;;;;;;7.95;5.18;;;;;;;26.27;52.58;99873.03;5006704;28;20026;-17
2023/06/14 08:33:49;;;;;;;7.75;4.95;;;;;;;26.54;50.62;99873.69;5007209;28;20030;-18
2023/06/14 08:36:15;;;;;;;7.97;5.13;;;;;;;26.65;55.00;99856.59;5007252;28;20030;-18
2023/06/14 08:38:40;;;;;;;8.18;5.22;;;;;;;26.90;52.32;99872.34;5006314;28;20068;-19
2023/06/14 08:41:08;;;;;;;6.28;4.38;;;;;;;26.26;51.92;99871.44;5007436;28;20026;-18
2023/06/14 08:43:34;;;;;;;6.72;4.30;;;;;;;26.54;52.86;99863.56;5020120;28;20142;-18
2023/06/14 08:46:02;;;;;;;7.55;4.28;;;;;;;27.32;51.46;99869.63;5027265;28;20095;-18
2023/06/14 08:48:29;;;;;;;5.18;3.88;;;;;;;27.64;49.39;99876.22;5027005;28;20515;-19
2023/06/14 08:51:01;;;;;;;17.63;4.57;;;;;;;27.82;46.16;99863.94;5026850;28;20049;-21
2023/06/14 08:53:28;;;;;;;6.72;4.03;;;;;;;28.10;47.05;99870.78;5027337;28;20029;-19
2023/06/14 08:55:55;;;;;;;5.85;3.70;;;;;;;28.30;48.73;99864.38;5026988;28;20047;-19
2023/06/14 08:58:24;;;;;;;8.13;4.63;;;;;;;28.49;46.02;99871.22;5027139;28;20037;-18
2023/06/14 09:00:52;;;;;;;7.47;4.00;;;;;;;28.49;47.06;99860.25;5026883;28;20251;-18
2023/06/14 09:03:20;;;;;;;6.32;4.28;;;;;;;28.62;45.50;99864.59;5026976;28;20068;-18
2023/06/14 09:05:46;;;;;;;6.75;4.78;;;;;;;28.23;48.71;99858.66;5027127;28;20407;-18
2023/06/14 09:08:12;;;;;;;9.20;5.03;;;;;;;28.60;47.44;99866.88;5026748;28;20710;-18
2023/06/14 09:10:40;;;;;;;5.72;4.28;;;;;;;28.48;47.33;99858.63;5026644;28;20119;-18
2023/06/14 09:13:06;;;;;;;8.02;5.35;;;;;;;28.52;47.26;99871.34;5026633;28;20385;-18
2023/06/14 09:15:32;;;;;;;8.30;5.50;;;;;;;28.22;48.38;99857.06;5026776;28;20128;-19
2023/06/14 09:17:58;;;;;;;7.05;5.07;;;;;;;28.13;48.03;99864.59;5026590;28;20030;-18
2023/06/14 09:20:25;;;;;;;8.23;5.38;;;;;;;27.90;49.17;99861.50;5026734;28;20478;-19
2023/06/14 09:22:50;;;;;;;8.02;5.45;;;;;;;27.44;49.40;99861.44;5026461;28;20751;-18
2023/06/14 09:25:17;;;;;;;8.13;5.38;;;;;;;27.74;49.00;99858.56;5026579;28;20064;-18
2023/06/14 09:27:43;;;;;;;8.13;5.43;;;;;;;28.11;48.83;99859.44;5026493;28;20049;-19
2023/06/14 09:30:10;;;;;;;7.20;5.57;;;;;;;28.24;49.72;99863.78;5026398;28;20222;-18
2023/06/14 09:32:37;;;;;;;7.67;6.10;;;;;;;27.95;48.80;99864.81;5026172;28;20506;-20
2023/06/14 09:35:04;;;;;;;6.28;5.38;;;;;;;27.97;47.94;99857.06;5025388;28;20108;-18
2023/06/14 09:37:31;;;;;;;9.63;5.60;;;;;;;27.94;48.22;99849.50;5026311;28;20025;-19
2023/06/14 09:39:58;;;;;;;7.93;5.40;;;;;;;28.10;49.58;99848.84;5026245;28;20029;-21
2023/06/14 09:42:28;;;;;;;7.25;5.45;;;;;;;28.50;48.40;99839.91;5026282;28;20111;-18
2023/06/14 09:44:55;;;;;;;8.90;5.47;;;;;;;28.83;46.69;99843.28;5026052;28;20107;-18
2023/06/14 09:47:21;;;;;;;8.48;5.40;;;;;;;28.93;45.01;99841.19;5026227;28;20029;-18
2023/06/14 09:49:47;;;;;;;7.75;5.35;;;;;;;29.34;46.48;99844.72;5025912;28;20156;-18
2023/06/14 09:52:16;;;;;;;6.85;5.07;;;;;;;29.29;47.04;99836.75;5026227;28;20155;-18
2023/06/14 09:54:43;;;;;;;6.30;4.70;;;;;;;28.91;45.00;99833.31;5026022;28;20060;-21
2023/06/14 09:57:14;;;;;;;6.93;4.28;;;;;;;28.68;43.85;99840.47;5026029;28;20500;-19
2023/06/14 09:59:45;;;;;;;7.05;4.10;;;;;;;28.40;44.29;99847.47;5026215;28;20029;-18
2023/06/14 10:02:33;;;;;;;6.40;4.22;;;;;;;28.94;44.73;99840.06;5025869;28;20026;-19
2023/06/14 10:05:09;;;;;;;6.80;4.30;;;;;;;29.30;44.07;99819.94;5025848;28;20144;-21
2023/06/14 10:08:04;;;;;;;6.28;4.30;;;;;;;29.23;42.34;99834.25;5026060;28;20028;-18
2023/06/14 10:10:30;;;;;;;5.05;3.83;;;;;;;29.50;43.99;99833.75;5025677;28;20021;-18
2023/06/14 10:12:56;;;;;;;8.15;4.90;;;;;;;29.54;43.20;99829.16;5008213;28;20025;-18
2023/06/14 10:15:49;;;;;;;6.43;4.18;;;;;;;29.54;42.42;99831.91;5025658;28;20546;-17
2023/06/14 10:18:25;;;;;;;6.05;4.10;;;;;;;28.37;45.46;99809.75;5025845;28;20049;-19
2023/06/14 10:21:18;;;;;;;7.22;4.20;;;;;;;29.06;45.85;99823.53;5025731;28;20164;-19
2023/06/14 10:23:46;;;;;;;7.38;4.32;;;;;;;29.46;43.27;99808.94;5025626;28;20029;-18
2023/06/14 10:26:21;;;;;;;7.28;4.25;;;;;;;28.78;44.52;99823.53;5025521;28;20021;-18
2023/06/14 10:29:08;;;;;;;6.43;4.15;;;;;;;28.74;45.03;99817.13;5025910;28;20083;-18
2023/06/14 10:31:42;;;;;;;6.30;4.32;;;;;;;29.41;43.39;99825.69;5025700;28;20037;-18
2023/06/14 10:34:09;;;;;;;6.13;3.70;;;;;;;29.99;41.64;99828.75;5025519;28;20479;-18
2023/06/14 10:36:34;;;;;;;6.07;4.00;;;;;;;30.14;42.05;99820.84;5025280;28;20036;-16
2023/06/14 10:39:19;;;;;;;5.90;4.15;;;;;;;29.39;42.73;99817.81;5025543;28;20026;-18
2023/06/14 10:41:53;;;;;;;5.57;4.18;;;;;;;30.38;43.07;99809.69;5025515;28;20529;-19
2023/06/14 10:44:21;;;;;;;6.38;4.40;;;;;;;30.78;40.71;99816.03;5025232;28;20144;-18
2023/06/14 10:46:48;;;;;;;5.15;4.13;;;;;;;30.31;39.07;99806.75;5028780;28;20029;-18
2023/06/14 10:49:21;;;;;;;7.28;4.60;;;;;;;30.25;39.78;99799.91;5029388;28;20049;-18
2023/06/14 10:51:51;;;;;;;5.88;4.20;;;;;;;29.78;43.36;99798.81;5029613;28;20053;-18
2023/06/14 10:54:20;;;;;;;6.47;3.97;;;;;;;29.64;42.05;99815.69;5029070;28;20061;-18
2023/06/14 10:56:52;;;;;;;6.50;4.43;;;;;;;29.50;44.20;99812.59;5029395;28;20056;-18
2023/06/14 10:59:19;;;;;;;6.75;3.95;;;;;;;28.92;43.35;99795.69;5028999;28;20091;-18
2023/06/14 11:02:04;;;;;;;6.88;3.85;;;;;;;29.29;44.20;99809.28;5029287;28;20079;-18
2023/06/14 11:05:05;;;;;;;7.15;4.05;;;;;;;29.72;41.44;99811.22;5029326;28;20045;-19
2023/06/14 11:07:58;;;;;;;5.65;3.70;;;;;;;29.41;40.48;99795.47;4996132;28;20037;-18
2023/06/14 11:10:38;;;;;;;5.38;3.97;;;;;;;29.50;42.59;99793.34;5029128;28;20065;-18
2023/06/14 11:13:03;;;;;;;5.20;3.60;;;;;;;29.08;42.43;99802.03;5029308;28;20061;-18
2023/06/14 11:15:30;;;;;;;5.47;3.60;;;;;;;28.63;43.55;99789.38;5028214;28;20070;-19
2023/06/14 11:17:57;;;;;;;5.47;4.03;;;;;;;28.47;43.34;99785.75;5029187;28;20037;-18
2023/06/14 11:20:26;;;;;;;5.95;3.67;;;;;;;28.56;42.77;99789.94;5029058;28;20052;-18
2023/06/14 11:22:52;;;;;;;5.32;3.85;;;;;;;28.69;42.83;99785.25;5028648;28;20060;-18
2023/06/14 11:25:18;;;;;;;6.05;3.78;;;;;;;28.60;44.18;99781.84;5028954;28;20044;-18
2023/06/14 11:27:44;;;;;;;5.45;3.72;;;;;;;28.22;44.40;99774.81;5028747;28;20034;-18
2023/06/14 11:30:11;;;;;;;7.03;4.10;;;;;;;28.21;44.23;99784.97;5029017;28;20132;-18
2023/06/14 11:32:37;;;;;;;6.32;3.65;;;;;;;28.15;43.09;99780.06;5028471;28;20516;-18